Messwerte Remada

Temperatur

Temperatur
°C
1623913200 8.00 8.00 27
1623916800 9.00 9.00 30
1623920400 10.00 10.00 32
1623924000 11.00 11.00 34
1623927600 12.00 12.00 36
1623931200 13.00 13.00
1623934800 14.00 14.00 38
1623938400 15.00 15.00 38
1623942000 16.00 16.00 38
1623945600 17.00 17.00 38
1623949200 18.00 18.00 38
1623952800 19.00 19.00 37
1623956400 20.00 20.00 33
1623960000 21.00 21.00 30
1623963600 22.00 22.00 29
1623967200 23.00 23.00
1623970800 0.00 0.00 26
1623974400 1.00 1.00 25
1623978000 2.00 2.00 24
1623981600 3.00 3.00 24
1623985200 4.00 4.00 24
1623988800 5.00 5.00 23
1623992400 6.00 6.00 22
1623996000 7.00 7.00 23

Aktuellste Messwerte

Wettercharakter
Wetter: recht sonnig
Temperatur
23 °C
Feuchtigkeit
60 %
Wind
5 km/hWindrichtung: Südost
Luftdruck
1017 hPa
Messzeit: 18. Juni 2021, 7.00Datenquelle: METAR

Weitere Messstationen in der Nähe

Messstation Temperatur Entfernung
El Borma 31 °C 136 km
Gabès 22 °C 176 km
Djerba - 176 km
Sfax 25 °C 268 km
Tozeur 27 °C 273 km
Gafsa 22 °C 276 km
El Oued 27 °C 362 km

Wind

Windrichtung Böen Mittelwind
° km/h km/h
1623913200 8.00 7.00 - 8.00 120° 5
1623916800 9.00 8.00 - 9.00 130° 5
1623920400 10.00 9.00 - 10.00 160° 20
1623924000 11.00 10.00 - 11.00 140° 5
1623927600 12.00 11.00 - 12.00 120° 10
1623931200 13.00 12.00 - 13.00
1623934800 14.00 13.00 - 14.00 5
1623938400 15.00 14.00 - 15.00 100° 10
1623942000 16.00 15.00 - 16.00 90° 5
1623945600 17.00 16.00 - 17.00 90° 10
1623949200 18.00 17.00 - 18.00 90° 10
1623952800 19.00 18.00 - 19.00 70° 10
1623956400 20.00 19.00 - 20.00 70° 20
1623960000 21.00 20.00 - 21.00 80° 15
1623963600 22.00 21.00 - 22.00 90° 10
1623967200 23.00 22.00 - 23.00
1623970800 0.00 23.00 - 0.00 80° 5
1623974400 1.00 0.00 - 1.00 50° 5
1623978000 2.00 1.00 - 2.00 5
1623981600 3.00 2.00 - 3.00 5
1623985200 4.00 3.00 - 4.00 5
1623988800 5.00 4.00 - 5.00 70° 5
1623992400 6.00 5.00 - 6.00 5
1623996000 7.00 6.00 - 7.00 120° 5

Ihre Wetterstation

Fehlt Ihre Wetterstation auf unserem Portal?

Schreiben Sie an network@meteonews.ch

Klima

Wann ist es am wärmsten? Wann regnet es am wenigsten? Unsere Klimadaten geben Auskunft.